sensor_id;sensor_type;location;lat;lon;timestamp;P1;durP1;ratioP1;P2;durP2;ratioP2
26060;SDS011;36331;51.378;0.018;2022-09-12T00:01:19;23.73;;;14.95;;
26060;SDS011;36331;51.378;0.018;2022-09-12T00:03:50;28.50;;;15.95;;
26060;SDS011;36331;51.378;0.018;2022-09-12T00:06:20;23.52;;;16.33;;
26060;SDS011;36331;51.378;0.018;2022-09-12T00:08:52;25.13;;;15.77;;
26060;SDS011;36331;51.378;0.018;2022-09-12T00:11:22;23.52;;;15.15;;
26060;SDS011;36331;51.378;0.018;2022-09-12T00:13:54;24.42;;;15.80;;
26060;SDS011;36331;51.378;0.018;2022-09-12T00:18:53;27.38;;;17.75;;
26060;SDS011;36331;51.378;0.018;2022-09-12T00:21:22;30.40;;;19.50;;
26060;SDS011;36331;51.378;0.018;2022-09-12T00:23:56;31.42;;;19.70;;
26060;SDS011;36331;51.378;0.018;2022-09-12T00:26:25;33.85;;;19.67;;
26060;SDS011;36331;51.378;0.018;2022-09-12T00:28:55;33.78;;;22.20;;
26060;SDS011;36331;51.378;0.018;2022-09-12T00:31:25;34.58;;;22.05;;
26060;SDS011;36331;51.378;0.018;2022-09-12T00:33:55;34.92;;;22.02;;
26060;SDS011;36331;51.378;0.018;2022-09-12T00:36:27;30.92;;;20.35;;
26060;SDS011;36331;51.378;0.018;2022-09-12T00:38:58;34.28;;;21.13;;
26060;SDS011;36331;51.378;0.018;2022-09-12T00:41:29;32.40;;;21.90;;
26060;SDS011;36331;51.378;0.018;2022-09-12T00:43:59;36.90;;;23.50;;
26060;SDS011;36331;51.378;0.018;2022-09-12T00:46:30;34.42;;;23.42;;
26060;SDS011;36331;51.378;0.018;2022-09-12T00:49:02;35.22;;;21.75;;
26060;SDS011;36331;51.378;0.018;2022-09-12T00:51:33;33.45;;;21.85;;
26060;SDS011;36331;51.378;0.018;2022-09-12T00:54:07;35.25;;;22.48;;
26060;SDS011;36331;51.378;0.018;2022-09-12T00:56:38;37.22;;;23.88;;
26060;SDS011;36331;51.378;0.018;2022-09-12T00:59:09;40.35;;;23.00;;
26060;SDS011;36331;51.378;0.018;2022-09-12T01:01:40;38.25;;;21.50;;
26060;SDS011;36331;51.378;0.018;2022-09-12T01:04:10;36.15;;;22.77;;
26060;SDS011;36331;51.378;0.018;2022-09-12T01:06:40;31.17;;;21.17;;
26060;SDS011;36331;51.378;0.018;2022-09-12T01:09:12;38.25;;;23.48;;
26060;SDS011;36331;51.378;0.018;2022-09-12T01:11:42;34.35;;;21.75;;
26060;SDS011;36331;51.378;0.018;2022-09-12T01:14:13;30.77;;;20.02;;
26060;SDS011;36331;51.378;0.018;2022-09-12T01:16:42;32.45;;;20.95;;
26060;SDS011;36331;51.378;0.018;2022-09-12T01:19:17;36.65;;;22.70;;
26060;SDS011;36331;51.378;0.018;2022-09-12T01:21:53;31.70;;;21.38;;
26060;SDS011;36331;51.378;0.018;2022-09-12T01:24:40;32.25;;;20.50;;
26060;SDS011;36331;51.378;0.018;2022-09-12T01:27:16;32.80;;;20.27;;
26060;SDS011;36331;51.378;0.018;2022-09-12T01:30:02;31.17;;;20.35;;
26060;SDS011;36331;51.378;0.018;2022-09-12T01:32:40;28.10;;;18.42;;
26060;SDS011;36331;51.378;0.018;2022-09-12T01:35:14;28.58;;;18.35;;
26060;SDS011;36331;51.378;0.018;2022-09-12T01:37:51;26.13;;;17.65;;
26060;SDS011;36331;51.378;0.018;2022-09-12T01:40:22;26.00;;;17.48;;
26060;SDS011;36331;51.378;0.018;2022-09-12T01:42:58;28.92;;;18.77;;
26060;SDS011;36331;51.378;0.018;2022-09-12T01:45:30;31.70;;;17.60;;
26060;SDS011;36331;51.378;0.018;2022-09-12T01:48:04;21.17;;;15.23;;
26060;SDS011;36331;51.378;0.018;2022-09-12T01:50:36;28.02;;;17.13;;
26060;SDS011;36331;51.378;0.018;2022-09-12T01:53:08;21.73;;;14.73;;
26060;SDS011;36331;51.378;0.018;2022-09-12T01:55:41;21.40;;;15.30;;
26060;SDS011;36331;51.378;0.018;2022-09-12T01:58:13;20.35;;;14.18;;
26060;SDS011;36331;51.378;0.018;2022-09-12T02:00:46;20.30;;;14.65;;
26060;SDS011;36331;51.378;0.018;2022-09-12T02:03:21;21.73;;;15.23;;
26060;SDS011;36331;51.378;0.018;2022-09-12T02:05:54;22.48;;;13.90;;
26060;SDS011;36331;51.378;0.018;2022-09-12T02:08:28;22.23;;;14.68;;
26060;SDS011;36331;51.378;0.018;2022-09-12T02:11:00;22.75;;;13.15;;
26060;SDS011;36331;51.378;0.018;2022-09-12T02:16:02;17.67;;;12.48;;
26060;SDS011;36331;51.378;0.018;2022-09-12T02:18:34;21.00;;;13.45;;
26060;SDS011;36331;51.378;0.018;2022-09-12T02:21:05;15.98;;;12.15;;
26060;SDS011;36331;51.378;0.018;2022-09-12T02:23:35;17.75;;;12.98;;
26060;SDS011;36331;51.378;0.018;2022-09-12T02:26:07;16.73;;;11.82;;
26060;SDS011;36331;51.378;0.018;2022-09-12T02:28:39;15.45;;;11.23;;
26060;SDS011;36331;51.378;0.018;2022-09-12T02:31:11;17.30;;;11.48;;
26060;SDS011;36331;51.378;0.018;2022-09-12T02:33:45;15.88;;;11.13;;
26060;SDS011;36331;51.378;0.018;2022-09-12T02:36:19;15.23;;;10.50;;
26060;SDS011;36331;51.378;0.018;2022-09-12T02:38:50;14.77;;;11.05;;
26060;SDS011;36331;51.378;0.018;2022-09-12T02:41:20;14.10;;;10.23;;
26060;SDS011;36331;51.378;0.018;2022-09-12T02:43:52;15.55;;;10.75;;
26060;SDS011;36331;51.378;0.018;2022-09-12T02:46:24;13.65;;;10.32;;
26060;SDS011;36331;51.378;0.018;2022-09-12T02:48:56;13.77;;;10.70;;
26060;SDS011;36331;51.378;0.018;2022-09-12T02:51:26;12.80;;;9.88;;
26060;SDS011;36331;51.378;0.018;2022-09-12T02:53:55;13.80;;;9.73;;
26060;SDS011;36331;51.378;0.018;2022-09-12T02:56:25;14.68;;;10.52;;
26060;SDS011;36331;51.378;0.018;2022-09-12T02:58:56;15.15;;;9.48;;
26060;SDS011;36331;51.378;0.018;2022-09-12T03:01:38;15.23;;;9.65;;
26060;SDS011;36331;51.378;0.018;2022-09-12T03:04:26;15.77;;;9.30;;
26060;SDS011;36331;51.378;0.018;2022-09-12T03:07:00;16.17;;;9.68;;
26060;SDS011;36331;51.378;0.018;2022-09-12T03:09:33;12.00;;;9.85;;
26060;SDS011;36331;51.378;0.018;2022-09-12T03:12:08;10.13;;;8.45;;
26060;SDS011;36331;51.378;0.018;2022-09-12T03:17:31;11.23;;;7.57;;
26060;SDS011;36331;51.378;0.018;2022-09-12T03:20:09;15.77;;;9.10;;
26060;SDS011;36331;51.378;0.018;2022-09-12T03:22:41;11.73;;;7.93;;
26060;SDS011;36331;51.378;0.018;2022-09-12T03:25:17;12.50;;;7.38;;
26060;SDS011;36331;51.378;0.018;2022-09-12T03:27:50;11.40;;;8.83;;
26060;SDS011;36331;51.378;0.018;2022-09-12T03:30:22;10.73;;;8.02;;
26060;SDS011;36331;51.378;0.018;2022-09-12T03:32:52;10.43;;;7.45;;
26060;SDS011;36331;51.378;0.018;2022-09-12T03:35:23;7.60;;;6.57;;
26060;SDS011;36331;51.378;0.018;2022-09-12T03:37:52;13.15;;;7.45;;
26060;SDS011;36331;51.378;0.018;2022-09-12T03:40:21;12.77;;;7.65;;
26060;SDS011;36331;51.378;0.018;2022-09-12T03:42:50;11.77;;;7.28;;
26060;SDS011;36331;51.378;0.018;2022-09-12T03:45:19;10.73;;;7.63;;
26060;SDS011;36331;51.378;0.018;2022-09-12T03:47:48;13.32;;;8.20;;
26060;SDS011;36331;51.378;0.018;2022-09-12T03:50:18;9.90;;;7.57;;
26060;SDS011;36331;51.378;0.018;2022-09-12T03:52:48;10.93;;;7.93;;
26060;SDS011;36331;51.378;0.018;2022-09-12T03:55:17;11.07;;;7.68;;
26060;SDS011;36331;51.378;0.018;2022-09-12T03:57:46;15.25;;;8.52;;
26060;SDS011;36331;51.378;0.018;2022-09-12T04:00:16;11.60;;;8.10;;
26060;SDS011;36331;51.378;0.018;2022-09-12T04:02:45;11.52;;;8.95;;
26060;SDS011;36331;51.378;0.018;2022-09-12T04:05:15;9.77;;;8.02;;
26060;SDS011;36331;51.378;0.018;2022-09-12T04:07:44;12.18;;;8.57;;
26060;SDS011;36331;51.378;0.018;2022-09-12T04:10:15;10.95;;;8.48;;
26060;SDS011;36331;51.378;0.018;2022-09-12T04:12:43;10.45;;;8.38;;
26060;SDS011;36331;51.378;0.018;2022-09-12T04:15:13;12.00;;;8.65;;
26060;SDS011;36331;51.378;0.018;2022-09-12T04:17:42;9.95;;;8.52;;
26060;SDS011;36331;51.378;0.018;2022-09-12T04:20:11;12.10;;;8.32;;
26060;SDS011;36331;51.378;0.018;2022-09-12T04:22:40;14.13;;;8.55;;
26060;SDS011;36331;51.378;0.018;2022-09-12T04:25:09;14.35;;;9.23;;
26060;SDS011;36331;51.378;0.018;2022-09-12T04:27:40;12.45;;;8.82;;
26060;SDS011;36331;51.378;0.018;2022-09-12T04:30:10;12.82;;;9.27;;
26060;SDS011;36331;51.378;0.018;2022-09-12T04:32:39;11.45;;;8.65;;
26060;SDS011;36331;51.378;0.018;2022-09-12T04:35:08;15.02;;;9.45;;
26060;SDS011;36331;51.378;0.018;2022-09-12T04:37:38;11.27;;;8.13;;
26060;SDS011;36331;51.378;0.018;2022-09-12T04:40:08;12.77;;;9.05;;
26060;SDS011;36331;51.378;0.018;2022-09-12T04:42:37;10.90;;;7.82;;
26060;SDS011;36331;51.378;0.018;2022-09-12T04:45:08;10.70;;;8.98;;
26060;SDS011;36331;51.378;0.018;2022-09-12T04:47:37;13.07;;;8.70;;
26060;SDS011;36331;51.378;0.018;2022-09-12T04:50:06;9.98;;;8.82;;
26060;SDS011;36331;51.378;0.018;2022-09-12T04:52:35;16.60;;;9.75;;
26060;SDS011;36331;51.378;0.018;2022-09-12T04:55:05;10.48;;;8.13;;
26060;SDS011;36331;51.378;0.018;2022-09-12T04:57:35;8.93;;;7.80;;
26060;SDS011;36331;51.378;0.018;2022-09-12T05:00:05;14.45;;;9.57;;
26060;SDS011;36331;51.378;0.018;2022-09-12T05:02:36;12.77;;;9.35;;
26060;SDS011;36331;51.378;0.018;2022-09-12T05:05:05;12.90;;;8.68;;
26060;SDS011;36331;51.378;0.018;2022-09-12T05:07:35;12.15;;;8.65;;
26060;SDS011;36331;51.378;0.018;2022-09-12T05:10:04;13.63;;;8.98;;
26060;SDS011;36331;51.378;0.018;2022-09-12T05:12:34;12.00;;;8.88;;
26060;SDS011;36331;51.378;0.018;2022-09-12T05:15:03;10.65;;;8.60;;
26060;SDS011;36331;51.378;0.018;2022-09-12T05:17:32;10.95;;;8.43;;
26060;SDS011;36331;51.378;0.018;2022-09-12T05:20:03;12.02;;;8.18;;
26060;SDS011;36331;51.378;0.018;2022-09-12T05:22:32;12.93;;;8.60;;
26060;SDS011;36331;51.378;0.018;2022-09-12T05:25:01;13.35;;;8.25;;
26060;SDS011;36331;51.378;0.018;2022-09-12T05:27:31;10.15;;;8.48;;
26060;SDS011;36331;51.378;0.018;2022-09-12T05:30:00;13.90;;;9.18;;
26060;SDS011;36331;51.378;0.018;2022-09-12T05:32:30;12.95;;;7.78;;
26060;SDS011;36331;51.378;0.018;2022-09-12T05:34:59;12.23;;;8.05;;
26060;SDS011;36331;51.378;0.018;2022-09-12T05:37:30;10.07;;;8.00;;
26060;SDS011;36331;51.378;0.018;2022-09-12T05:39:59;9.55;;;7.22;;
26060;SDS011;36331;51.378;0.018;2022-09-12T05:42:31;9.82;;;7.68;;
26060;SDS011;36331;51.378;0.018;2022-09-12T05:45:00;10.00;;;7.00;;
26060;SDS011;36331;51.378;0.018;2022-09-12T05:47:29;11.15;;;7.43;;
26060;SDS011;36331;51.378;0.018;2022-09-12T05:49:59;11.23;;;7.55;;
26060;SDS011;36331;51.378;0.018;2022-09-12T05:52:30;11.18;;;6.00;;
26060;SDS011;36331;51.378;0.018;2022-09-12T05:54:59;6.20;;;5.60;;
26060;SDS011;36331;51.378;0.018;2022-09-12T05:57:28;10.95;;;5.13;;
26060;SDS011;36331;51.378;0.018;2022-09-12T05:59:57;9.10;;;5.15;;
26060;SDS011;36331;51.378;0.018;2022-09-12T06:02:27;7.03;;;4.22;;
26060;SDS011;36331;51.378;0.018;2022-09-12T06:04:56;5.07;;;3.60;;
26060;SDS011;36331;51.378;0.018;2022-09-12T06:07:25;4.38;;;3.28;;
26060;SDS011;36331;51.378;0.018;2022-09-12T06:09:56;4.47;;;3.17;;
26060;SDS011;36331;51.378;0.018;2022-09-12T06:12:27;8.38;;;2.85;;
26060;SDS011;36331;51.378;0.018;2022-09-12T06:14:56;6.30;;;3.42;;
26060;SDS011;36331;51.378;0.018;2022-09-12T06:17:26;5.00;;;2.67;;
26060;SDS011;36331;51.378;0.018;2022-09-12T06:19:55;5.10;;;3.20;;
26060;SDS011;36331;51.378;0.018;2022-09-12T06:22:24;5.22;;;2.25;;
26060;SDS011;36331;51.378;0.018;2022-09-12T06:24:53;4.45;;;2.22;;
26060;SDS011;36331;51.378;0.018;2022-09-12T06:27:25;2.97;;;2.10;;
26060;SDS011;36331;51.378;0.018;2022-09-12T06:29:54;3.67;;;2.25;;
26060;SDS011;36331;51.378;0.018;2022-09-12T06:32:23;2.90;;;2.00;;
26060;SDS011;36331;51.378;0.018;2022-09-12T06:34:52;3.58;;;1.73;;
26060;SDS011;36331;51.378;0.018;2022-09-12T06:37:22;4.03;;;2.10;;
26060;SDS011;36331;51.378;0.018;2022-09-12T06:39:51;2.58;;;1.33;;
26060;SDS011;36331;51.378;0.018;2022-09-12T06:42:22;4.93;;;1.80;;
26060;SDS011;36331;51.378;0.018;2022-09-12T06:44:57;4.65;;;1.88;;
26060;SDS011;36331;51.378;0.018;2022-09-12T06:47:26;3.90;;;1.73;;
26060;SDS011;36331;51.378;0.018;2022-09-12T06:49:56;3.25;;;1.23;;
26060;SDS011;36331;51.378;0.018;2022-09-12T06:52:25;4.20;;;1.70;;
26060;SDS011;36331;51.378;0.018;2022-09-12T06:54:55;2.75;;;1.35;;
26060;SDS011;36331;51.378;0.018;2022-09-12T06:57:24;3.45;;;1.30;;
26060;SDS011;36331;51.378;0.018;2022-09-12T06:59:57;5.93;;;1.50;;
26060;SDS011;36331;51.378;0.018;2022-09-12T07:02:27;4.05;;;1.40;;
26060;SDS011;36331;51.378;0.018;2022-09-12T07:04:56;3.17;;;1.45;;
26060;SDS011;36331;51.378;0.018;2022-09-12T07:07:25;3.40;;;1.25;;
26060;SDS011;36331;51.378;0.018;2022-09-12T07:09:54;3.30;;;1.52;;
26060;SDS011;36331;51.378;0.018;2022-09-12T07:12:24;4.60;;;1.42;;
26060;SDS011;36331;51.378;0.018;2022-09-12T07:14:53;1.70;;;1.48;;
26060;SDS011;36331;51.378;0.018;2022-09-12T07:17:23;2.70;;;1.50;;
26060;SDS011;36331;51.378;0.018;2022-09-12T07:19:53;2.53;;;1.48;;
26060;SDS011;36331;51.378;0.018;2022-09-12T07:22:22;5.05;;;1.30;;
26060;SDS011;36331;51.378;0.018;2022-09-12T07:24:51;3.50;;;1.33;;
26060;SDS011;36331;51.378;0.018;2022-09-12T07:27:21;4.50;;;1.52;;
26060;SDS011;36331;51.378;0.018;2022-09-12T07:29:50;5.78;;;2.33;;
26060;SDS011;36331;51.378;0.018;2022-09-12T07:32:19;3.85;;;1.65;;
26060;SDS011;36331;51.378;0.018;2022-09-12T07:34:51;4.18;;;1.40;;
26060;SDS011;36331;51.378;0.018;2022-09-12T07:37:20;2.85;;;1.67;;
26060;SDS011;36331;51.378;0.018;2022-09-12T07:39:49;4.80;;;1.67;;
26060;SDS011;36331;51.378;0.018;2022-09-12T07:42:18;4.70;;;1.10;;
26060;SDS011;36331;51.378;0.018;2022-09-12T07:44:49;4.15;;;1.50;;
26060;SDS011;36331;51.378;0.018;2022-09-12T07:47:19;4.13;;;1.40;;
26060;SDS011;36331;51.378;0.018;2022-09-12T07:49:48;3.90;;;1.50;;
26060;SDS011;36331;51.378;0.018;2022-09-12T07:52:20;5.00;;;1.60;;
26060;SDS011;36331;51.378;0.018;2022-09-12T07:54:49;3.53;;;1.23;;
26060;SDS011;36331;51.378;0.018;2022-09-12T07:57:18;3.13;;;1.65;;
26060;SDS011;36331;51.378;0.018;2022-09-12T07:59:47;2.00;;;1.17;;
26060;SDS011;36331;51.378;0.018;2022-09-12T08:02:19;3.05;;;1.15;;
26060;SDS011;36331;51.378;0.018;2022-09-12T08:04:48;3.90;;;1.30;;
26060;SDS011;36331;51.378;0.018;2022-09-12T08:07:20;2.88;;;1.10;;
26060;SDS011;36331;51.378;0.018;2022-09-12T08:09:49;2.88;;;1.40;;
26060;SDS011;36331;51.378;0.018;2022-09-12T08:12:19;2.67;;;1.27;;
26060;SDS011;36331;51.378;0.018;2022-09-12T08:14:48;4.97;;;1.50;;
26060;SDS011;36331;51.378;0.018;2022-09-12T08:17:17;3.08;;;1.08;;
26060;SDS011;36331;51.378;0.018;2022-09-12T08:19:47;4.43;;;1.50;;
26060;SDS011;36331;51.378;0.018;2022-09-12T08:22:17;3.55;;;1.08;;
26060;SDS011;36331;51.378;0.018;2022-09-12T08:24:49;4.13;;;0.90;;
26060;SDS011;36331;51.378;0.018;2022-09-12T08:27:18;1.60;;;0.90;;
26060;SDS011;36331;51.378;0.018;2022-09-12T08:29:47;4.35;;;0.90;;
26060;SDS011;36331;51.378;0.018;2022-09-12T08:32:16;3.85;;;1.00;;
26060;SDS011;36331;51.378;0.018;2022-09-12T08:34:46;2.47;;;1.05;;
26060;SDS011;36331;51.378;0.018;2022-09-12T08:37:15;3.05;;;1.02;;
26060;SDS011;36331;51.378;0.018;2022-09-12T08:39:44;1.95;;;1.00;;
26060;SDS011;36331;51.378;0.018;2022-09-12T08:42:16;3.85;;;1.02;;
26060;SDS011;36331;51.378;0.018;2022-09-12T08:44:54;1.98;;;0.90;;
26060;SDS011;36331;51.378;0.018;2022-09-12T08:47:28;1.85;;;1.25;;
26060;SDS011;36331;51.378;0.018;2022-09-12T08:50:00;4.55;;;1.10;;
26060;SDS011;36331;51.378;0.018;2022-09-12T08:52:34;2.35;;;1.00;;
26060;SDS011;36331;51.378;0.018;2022-09-12T08:55:05;1.90;;;0.82;;
26060;SDS011;36331;51.378;0.018;2022-09-12T08:57:38;2.13;;;1.02;;
26060;SDS011;36331;51.378;0.018;2022-09-12T09:00:11;1.90;;;1.02;;
26060;SDS011;36331;51.378;0.018;2022-09-12T09:02:58;2.75;;;0.90;;
26060;SDS011;36331;51.378;0.018;2022-09-12T09:05:35;2.47;;;0.82;;
26060;SDS011;36331;51.378;0.018;2022-09-12T09:08:16;2.15;;;1.10;;
26060;SDS011;36331;51.378;0.018;2022-09-12T09:10:49;1.70;;;1.08;;
26060;SDS011;36331;51.378;0.018;2022-09-12T09:13:28;3.17;;;0.80;;
26060;SDS011;36331;51.378;0.018;2022-09-12T09:16:20;2.70;;;1.00;;
26060;SDS011;36331;51.378;0.018;2022-09-12T09:18:50;5.78;;;1.50;;
26060;SDS011;36331;51.378;0.018;2022-09-12T09:21:21;1.58;;;0.77;;
26060;SDS011;36331;51.378;0.018;2022-09-12T09:23:53;3.38;;;1.50;;
26060;SDS011;36331;51.378;0.018;2022-09-12T09:26:27;2.67;;;1.08;;
26060;SDS011;36331;51.378;0.018;2022-09-12T09:29:00;3.17;;;0.90;;
26060;SDS011;36331;51.378;0.018;2022-09-12T09:31:32;2.17;;;0.98;;
26060;SDS011;36331;51.378;0.018;2022-09-12T09:34:04;2.63;;;0.90;;
26060;SDS011;36331;51.378;0.018;2022-09-12T09:36:35;2.05;;;1.10;;
26060;SDS011;36331;51.378;0.018;2022-09-12T09:39:08;5.22;;;1.20;;
26060;SDS011;36331;51.378;0.018;2022-09-12T09:41:41;4.63;;;1.90;;
26060;SDS011;36331;51.378;0.018;2022-09-12T09:44:14;3.83;;;0.90;;
26060;SDS011;36331;51.378;0.018;2022-09-12T09:46:43;1.98;;;0.90;;
26060;SDS011;36331;51.378;0.018;2022-09-12T09:49:12;1.95;;;0.90;;
26060;SDS011;36331;51.378;0.018;2022-09-12T09:51:43;3.38;;;1.00;;
26060;SDS011;36331;51.378;0.018;2022-09-12T09:54:16;2.55;;;1.02;;
26060;SDS011;36331;51.378;0.018;2022-09-12T09:56:46;3.63;;;0.88;;
26060;SDS011;36331;51.378;0.018;2022-09-12T09:59:18;2.58;;;0.98;;
26060;SDS011;36331;51.378;0.018;2022-09-12T10:01:48;3.15;;;1.15;;
26060;SDS011;36331;51.378;0.018;2022-09-12T10:04:21;3.50;;;1.73;;
26060;SDS011;36331;51.378;0.018;2022-09-12T10:06:51;4.55;;;1.60;;
26060;SDS011;36331;51.378;0.018;2022-09-12T10:09:22;4.70;;;2.40;;
26060;SDS011;36331;51.378;0.018;2022-09-12T10:11:52;5.70;;;2.60;;
26060;SDS011;36331;51.378;0.018;2022-09-12T10:17:23;6.13;;;1.70;;
26060;SDS011;36331;51.378;0.018;2022-09-12T10:20:00;4.97;;;2.35;;
26060;SDS011;36331;51.378;0.018;2022-09-12T10:22:49;4.75;;;2.15;;
26060;SDS011;36331;51.378;0.018;2022-09-12T10:25:18;5.57;;;1.58;;
26060;SDS011;36331;51.378;0.018;2022-09-12T10:27:53;5.60;;;2.65;;
26060;SDS011;36331;51.378;0.018;2022-09-12T10:30:22;4.32;;;2.15;;
26060;SDS011;36331;51.378;0.018;2022-09-12T10:33:03;3.60;;;2.33;;
26060;SDS011;36331;51.378;0.018;2022-09-12T10:35:41;10.25;;;1.85;;
26060;SDS011;36331;51.378;0.018;2022-09-12T10:38:13;3.08;;;1.83;;
26060;SDS011;36331;51.378;0.018;2022-09-12T10:40:45;3.70;;;1.50;;
26060;SDS011;36331;51.378;0.018;2022-09-12T10:43:25;4.45;;;3.05;;
26060;SDS011;36331;51.378;0.018;2022-09-12T10:45:55;3.95;;;2.50;;
26060;SDS011;36331;51.378;0.018;2022-09-12T10:48:29;6.57;;;4.95;;
26060;SDS011;36331;51.378;0.018;2022-09-12T10:50:59;7.53;;;4.03;;
26060;SDS011;36331;51.378;0.018;2022-09-12T10:53:30;7.35;;;5.18;;
26060;SDS011;36331;51.378;0.018;2022-09-12T10:56:02;7.15;;;4.22;;
26060;SDS011;36331;51.378;0.018;2022-09-12T10:58:35;7.45;;;4.85;;
26060;SDS011;36331;51.378;0.018;2022-09-12T11:01:07;7.07;;;4.00;;
26060;SDS011;36331;51.378;0.018;2022-09-12T11:03:44;5.88;;;3.72;;
26060;SDS011;36331;51.378;0.018;2022-09-12T11:06:24;5.22;;;2.75;;
26060;SDS011;36331;51.378;0.018;2022-09-12T11:09:01;5.53;;;3.53;;
26060;SDS011;36331;51.378;0.018;2022-09-12T11:11:38;7.18;;;3.83;;
26060;SDS011;36331;51.378;0.018;2022-09-12T11:14:12;10.60;;;7.07;;
26060;SDS011;36331;51.378;0.018;2022-09-12T11:16:47;7.95;;;5.43;;
26060;SDS011;36331;51.378;0.018;2022-09-12T11:19:35;8.95;;;6.45;;
26060;SDS011;36331;51.378;0.018;2022-09-12T11:22:08;11.10;;;6.63;;
26060;SDS011;36331;51.378;0.018;2022-09-12T11:24:44;14.15;;;7.75;;
26060;SDS011;36331;51.378;0.018;2022-09-12T11:27:21;10.35;;;6.20;;
26060;SDS011;36331;51.378;0.018;2022-09-12T11:29:55;10.35;;;6.38;;
26060;SDS011;36331;51.378;0.018;2022-09-12T11:35:22;13.60;;;7.63;;
26060;SDS011;36331;51.378;0.018;2022-09-12T11:37:57;18.23;;;10.85;;
26060;SDS011;36331;51.378;0.018;2022-09-12T11:40:28;12.68;;;8.50;;
26060;SDS011;36331;51.378;0.018;2022-09-12T11:45:28;13.98;;;8.32;;
26060;SDS011;36331;51.378;0.018;2022-09-12T11:47:59;11.35;;;6.60;;
26060;SDS011;36331;51.378;0.018;2022-09-12T11:50:31;8.68;;;5.85;;
26060;SDS011;36331;51.378;0.018;2022-09-12T11:53:04;9.00;;;5.70;;
26060;SDS011;36331;51.378;0.018;2022-09-12T11:55:43;12.43;;;6.88;;
26060;SDS011;36331;51.378;0.018;2022-09-12T11:58:13;11.05;;;5.78;;
26060;SDS011;36331;51.378;0.018;2022-09-12T12:00:43;8.30;;;6.00;;
26060;SDS011;36331;51.378;0.018;2022-09-12T12:05:48;10.82;;;6.15;;
26060;SDS011;36331;51.378;0.018;2022-09-12T12:08:20;10.20;;;5.95;;
26060;SDS011;36331;51.378;0.018;2022-09-12T12:10:50;10.55;;;5.80;;
26060;SDS011;36331;51.378;0.018;2022-09-12T12:13:22;10.05;;;6.22;;
26060;SDS011;36331;51.378;0.018;2022-09-12T12:15:54;17.58;;;8.73;;
26060;SDS011;36331;51.378;0.018;2022-09-12T12:18:24;11.20;;;7.18;;
26060;SDS011;36331;51.378;0.018;2022-09-12T12:21:19;11.73;;;8.13;;
26060;SDS011;36331;51.378;0.018;2022-09-12T12:24:00;6.90;;;4.68;;
26060;SDS011;36331;51.378;0.018;2022-09-12T12:26:44;3.75;;;1.90;;
26060;SDS011;36331;51.378;0.018;2022-09-12T12:32:20;2.58;;;0.60;;
26060;SDS011;36331;51.378;0.018;2022-09-12T12:47:30;1.73;;;0.65;;
26060;SDS011;36331;51.378;0.018;2022-09-12T12:50:02;2.78;;;1.30;;
26060;SDS011;36331;51.378;0.018;2022-09-12T12:55:12;2.53;;;1.50;;
26060;SDS011;36331;51.378;0.018;2022-09-12T12:57:47;3.35;;;1.55;;
26060;SDS011;36331;51.378;0.018;2022-09-12T13:00:30;2.63;;;0.77;;
26060;SDS011;36331;51.378;0.018;2022-09-12T13:03:05;4.57;;;1.15;;
26060;SDS011;36331;51.378;0.018;2022-09-12T13:05:39;2.85;;;1.17;;
26060;SDS011;36331;51.378;0.018;2022-09-12T13:08:24;3.47;;;1.45;;
26060;SDS011;36331;51.378;0.018;2022-09-12T13:10:58;2.08;;;0.73;;
26060;SDS011;36331;51.378;0.018;2022-09-12T13:13:30;1.10;;;0.43;;
26060;SDS011;36331;51.378;0.018;2022-09-12T13:18:31;1.85;;;0.85;;
26060;SDS011;36331;51.378;0.018;2022-09-12T13:21:06;1.52;;;0.60;;
26060;SDS011;36331;51.378;0.018;2022-09-12T13:23:37;1.55;;;0.65;;
26060;SDS011;36331;51.378;0.018;2022-09-12T13:26:11;3.25;;;0.98;;
26060;SDS011;36331;51.378;0.018;2022-09-12T13:28:40;2.42;;;0.80;;
26060;SDS011;36331;51.378;0.018;2022-09-12T13:31:11;2.58;;;0.50;;
26060;SDS011;36331;51.378;0.018;2022-09-12T13:36:17;1.33;;;0.52;;
26060;SDS011;36331;51.378;0.018;2022-09-12T13:38:52;2.05;;;0.65;;
26060;SDS011;36331;51.378;0.018;2022-09-12T13:41:33;2.50;;;0.60;;
26060;SDS011;36331;51.378;0.018;2022-09-12T13:44:07;2.00;;;0.80;;
26060;SDS011;36331;51.378;0.018;2022-09-12T13:46:36;3.25;;;0.90;;
26060;SDS011;36331;51.378;0.018;2022-09-12T13:49:18;2.58;;;1.08;;
26060;SDS011;36331;51.378;0.018;2022-09-12T13:51:57;2.00;;;0.80;;
26060;SDS011;36331;51.378;0.018;2022-09-12T13:54:27;1.42;;;0.60;;
26060;SDS011;36331;51.378;0.018;2022-09-12T13:56:57;1.60;;;0.80;;
26060;SDS011;36331;51.378;0.018;2022-09-12T13:59:26;0.88;;;0.70;;
26060;SDS011;36331;51.378;0.018;2022-09-12T14:01:56;2.35;;;1.17;;
26060;SDS011;36331;51.378;0.018;2022-09-12T14:04:25;4.38;;;1.52;;
26060;SDS011;36331;51.378;0.018;2022-09-12T14:07:15;3.03;;;1.52;;
26060;SDS011;36331;51.378;0.018;2022-09-12T14:09:51;1.40;;;0.82;;
26060;SDS011;36331;51.378;0.018;2022-09-12T14:12:22;6.07;;;1.33;;
26060;SDS011;36331;51.378;0.018;2022-09-12T14:14:52;2.05;;;0.90;;
26060;SDS011;36331;51.378;0.018;2022-09-12T14:17:23;4.18;;;1.00;;
26060;SDS011;36331;51.378;0.018;2022-09-12T14:19:56;2.67;;;0.70;;
26060;SDS011;36331;51.378;0.018;2022-09-12T14:25:00;1.52;;;0.70;;
26060;SDS011;36331;51.378;0.018;2022-09-12T14:27:30;4.65;;;0.70;;
26060;SDS011;36331;51.378;0.018;2022-09-12T14:30:05;1.90;;;0.60;;
26060;SDS011;36331;51.378;0.018;2022-09-12T14:32:35;4.13;;;3.07;;
26060;SDS011;36331;51.378;0.018;2022-09-12T14:35:05;2.50;;;1.92;;
26060;SDS011;36331;51.378;0.018;2022-09-12T14:37:36;1.80;;;0.85;;
26060;SDS011;36331;51.378;0.018;2022-09-12T14:40:13;1.45;;;0.63;;
26060;SDS011;36331;51.378;0.018;2022-09-12T14:42:44;1.65;;;0.60;;
26060;SDS011;36331;51.378;0.018;2022-09-12T14:45:16;3.05;;;0.60;;
26060;SDS011;36331;51.378;0.018;2022-09-12T14:47:47;1.48;;;0.73;;
26060;SDS011;36331;51.378;0.018;2022-09-12T14:50:18;3.67;;;0.77;;
26060;SDS011;36331;51.378;0.018;2022-09-12T14:53:02;1.38;;;0.52;;
26060;SDS011;36331;51.378;0.018;2022-09-12T14:55:32;1.38;;;0.60;;
26060;SDS011;36331;51.378;0.018;2022-09-12T14:58:15;1.67;;;0.60;;
26060;SDS011;36331;51.378;0.018;2022-09-12T15:03:21;1.25;;;0.63;;
26060;SDS011;36331;51.378;0.018;2022-09-12T15:05:51;3.08;;;0.90;;
26060;SDS011;36331;51.378;0.018;2022-09-12T15:08:22;2.13;;;1.05;;
26060;SDS011;36331;51.378;0.018;2022-09-12T15:10:52;2.03;;;0.75;;
26060;SDS011;36331;51.378;0.018;2022-09-12T15:13:22;2.78;;;1.10;;
26060;SDS011;36331;51.378;0.018;2022-09-12T15:15:52;4.55;;;0.60;;
26060;SDS011;36331;51.378;0.018;2022-09-12T15:18:23;1.70;;;0.47;;
26060;SDS011;36331;51.378;0.018;2022-09-12T15:20:54;3.75;;;0.60;;
26060;SDS011;36331;51.378;0.018;2022-09-12T15:23:32;2.25;;;0.70;;
26060;SDS011;36331;51.378;0.018;2022-09-12T15:26:04;3.67;;;0.95;;
26060;SDS011;36331;51.378;0.018;2022-09-12T15:28:34;1.30;;;0.60;;
26060;SDS011;36331;51.378;0.018;2022-09-12T15:31:05;2.38;;;0.90;;
26060;SDS011;36331;51.378;0.018;2022-09-12T15:33:35;5.57;;;2.10;;
26060;SDS011;36331;51.378;0.018;2022-09-12T15:36:07;1.58;;;0.70;;
26060;SDS011;36331;51.378;0.018;2022-09-12T15:38:41;1.30;;;0.90;;
26060;SDS011;36331;51.378;0.018;2022-09-12T15:41:11;1.63;;;0.60;;
26060;SDS011;36331;51.378;0.018;2022-09-12T15:43:41;1.67;;;0.52;;
26060;SDS011;36331;51.378;0.018;2022-09-12T15:46:11;1.88;;;0.80;;
26060;SDS011;36331;51.378;0.018;2022-09-12T15:48:40;1.65;;;0.60;;
26060;SDS011;36331;51.378;0.018;2022-09-12T15:51:10;3.40;;;1.73;;
26060;SDS011;36331;51.378;0.018;2022-09-12T15:53:44;2.78;;;1.55;;
26060;SDS011;36331;51.378;0.018;2022-09-12T15:56:13;2.85;;;0.98;;